createdAt,value
2018-12-26T00:03:44.968Z,2.56
2018-12-26T00:06:14.194Z,2.49
2018-12-26T00:08:43.426Z,2.32
2018-12-26T00:11:12.693Z,2.38
2018-12-26T00:13:41.938Z,2.47
2018-12-26T00:16:11.235Z,2.50
2018-12-26T00:18:40.577Z,2.36
2018-12-26T00:21:09.789Z,2.39
2018-12-26T00:23:39.024Z,2.30
2018-12-26T00:26:08.299Z,2.50
2018-12-26T00:28:37.531Z,2.40
2018-12-26T00:31:06.779Z,2.48
2018-12-26T00:33:36.035Z,2.36
2018-12-26T00:36:05.294Z,2.29
2018-12-26T00:38:34.560Z,2.35
2018-12-26T00:41:03.793Z,2.28
2018-12-26T00:43:33.047Z,2.34
2018-12-26T00:46:02.302Z,2.29
2018-12-26T00:48:31.923Z,2.34
2018-12-26T00:51:01.156Z,2.35
2018-12-26T00:53:30.398Z,2.33
2018-12-26T00:55:59.637Z,2.23
2018-12-26T00:58:48.232Z,2.17
2018-12-26T01:01:17.479Z,1.91
2018-12-26T01:03:46.732Z,2.22
2018-12-26T01:06:15.954Z,2.33
2018-12-26T01:08:45.215Z,2.20
2018-12-26T01:11:14.461Z,2.22
2018-12-26T01:13:43.699Z,2.41
2018-12-26T01:16:12.934Z,2.28
2018-12-26T01:18:42.170Z,2.36
2018-12-26T01:21:11.430Z,2.17
2018-12-26T01:27:00.527Z,2.21
2018-12-26T01:29:49.109Z,2.21
2018-12-26T01:32:18.373Z,2.02
2018-12-26T01:35:06.949Z,1.96
2018-12-26T01:37:36.198Z,2.07
2018-12-26T01:42:56.170Z,2.04
2018-12-26T01:45:25.418Z,2.06
2018-12-26T01:47:54.668Z,2.01
2018-12-26T01:50:23.921Z,2.01
2018-12-26T01:52:53.149Z,2.02
2018-12-26T01:55:22.394Z,1.85
2018-12-26T01:58:28.845Z,1.88
2018-12-26T02:00:58.116Z,1.98
2018-12-26T02:03:27.374Z,2.13
2018-12-26T02:05:56.638Z,2.01
2018-12-26T02:12:15.688Z,1.96
2018-12-26T02:14:44.959Z,1.91
2018-12-26T02:17:14.253Z,2.01
2018-12-26T02:20:20.681Z,1.83
2018-12-26T02:22:49.919Z,1.93
2018-12-26T02:25:19.173Z,2.03
2018-12-26T02:27:48.403Z,1.95
2018-12-26T02:30:17.665Z,1.88
2018-12-26T02:32:46.899Z,1.87
2018-12-26T02:35:16.154Z,1.93
2018-12-26T02:37:45.414Z,1.74
2018-12-26T02:40:14.653Z,1.82
2018-12-26T02:42:43.908Z,1.82
2018-12-26T02:45:13.159Z,1.97
2018-12-26T02:47:42.426Z,1.71
2018-12-26T02:50:11.657Z,1.79
2018-12-26T02:52:40.911Z,1.98
2018-12-26T02:55:10.150Z,1.81
2018-12-26T02:57:39.417Z,1.75
2018-12-26T03:03:06.616Z,1.87
2018-12-26T03:05:35.892Z,1.79
2018-12-26T03:08:05.146Z,1.76
2018-12-26T03:10:34.406Z,1.98
2018-12-26T03:13:03.639Z,1.95
2018-12-26T03:16:29.141Z,1.92
2018-12-26T03:18:58.391Z,1.83
2018-12-26T03:21:27.659Z,1.85
2018-12-26T03:23:56.894Z,2.08
2018-12-26T03:26:27.136Z,1.84
2018-12-26T03:28:56.367Z,1.92
2018-12-26T03:31:25.648Z,1.80
2018-12-26T03:33:54.867Z,1.55
2018-12-26T03:36:24.123Z,1.84
2018-12-26T03:38:53.342Z,1.79
2018-12-26T03:41:22.608Z,1.83
2018-12-26T03:43:51.856Z,1.89
2018-12-26T03:46:21.155Z,2.09
2018-12-26T03:48:50.387Z,2.04
2018-12-26T03:51:19.679Z,1.89
2018-12-26T03:53:48.935Z,1.80
2018-12-26T03:56:19.138Z,1.77
2018-12-26T03:58:48.375Z,2.03
2018-12-26T04:01:17.600Z,1.84
2018-12-26T04:03:46.939Z,2.07
2018-12-26T04:06:16.186Z,2.10
2018-12-26T04:08:45.436Z,2.10
2018-12-26T04:11:14.744Z,2.14
2018-12-26T04:13:44.065Z,2.04
2018-12-26T04:16:14.254Z,1.91
2018-12-26T04:18:43.492Z,1.87
2018-12-26T04:21:12.905Z,2.07
2018-12-26T04:23:42.132Z,2.08
2018-12-26T04:26:11.367Z,2.09
2018-12-26T04:28:40.613Z,2.18
2018-12-26T04:31:09.847Z,2.10
2018-12-26T04:33:39.084Z,1.81
2018-12-26T04:36:08.315Z,1.73
2018-12-26T04:38:38.483Z,2.12
2018-12-26T04:41:07.722Z,1.93
2018-12-26T04:43:36.955Z,1.94
2018-12-26T04:46:06.182Z,1.98
2018-12-26T04:48:35.430Z,2.24
2018-12-26T04:51:04.693Z,2.11
2018-12-26T04:53:33.932Z,2.04
2018-12-26T04:56:03.192Z,2.08
2018-12-26T04:58:32.438Z,2.23
2018-12-26T05:01:01.681Z,2.22
2018-12-26T05:03:30.940Z,2.36
2018-12-26T05:06:00.191Z,2.22
2018-12-26T05:08:29.425Z,2.29
2018-12-26T05:10:58.675Z,2.09
2018-12-26T05:13:27.933Z,2.34
2018-12-26T05:15:58.110Z,2.37
2018-12-26T05:18:27.348Z,2.43
2018-12-26T05:20:56.602Z,2.34
2018-12-26T05:23:25.853Z,2.21
2018-12-26T05:25:55.116Z,2.41
2018-12-26T05:28:24.351Z,2.40
2018-12-26T05:30:53.604Z,2.28
2018-12-26T05:33:22.857Z,2.54
2018-12-26T05:35:52.155Z,2.54
2018-12-26T05:38:22.069Z,2.25
2018-12-26T05:40:51.343Z,2.22
2018-12-26T05:43:20.577Z,2.36
2018-12-26T05:45:49.815Z,2.20
2018-12-26T05:48:19.075Z,2.12
2018-12-26T05:50:48.310Z,1.95
2018-12-26T05:53:18.499Z,1.99
2018-12-26T05:55:47.728Z,2.13
2018-12-26T05:58:16.988Z,2.26
2018-12-26T06:00:46.229Z,2.31
2018-12-26T06:03:15.452Z,2.22
2018-12-26T06:05:44.688Z,2.21
2018-12-26T06:08:13.936Z,2.38
2018-12-26T06:10:43.183Z,2.36
2018-12-26T06:13:13.438Z,2.48
2018-12-26T06:15:42.665Z,2.30
2018-12-26T06:18:11.926Z,2.30
2018-12-26T06:20:41.168Z,2.25
2018-12-26T06:23:10.402Z,2.49
2018-12-26T06:25:39.630Z,2.30
2018-12-26T06:28:08.881Z,2.15
2018-12-26T06:30:38.117Z,2.24
2018-12-26T06:33:07.356Z,2.02
2018-12-26T06:35:36.574Z,2.20
2018-12-26T06:38:05.825Z,2.17
2018-12-26T06:40:35.066Z,2.37
2018-12-26T06:43:04.311Z,2.18
2018-12-26T06:45:33.536Z,2.17
2018-12-26T06:48:02.781Z,2.25
2018-12-26T06:50:32.024Z,2.44
2018-12-26T06:53:01.256Z,2.46
2018-12-26T06:55:30.519Z,2.32
2018-12-26T06:58:00.191Z,2.42
2018-12-26T07:00:29.695Z,2.29
2018-12-26T07:02:58.946Z,2.32
2018-12-26T07:05:28.204Z,2.22
2018-12-26T07:07:57.442Z,2.12
2018-12-26T07:10:26.680Z,2.32
2018-12-26T07:12:55.941Z,2.18
2018-12-26T07:15:25.189Z,2.24
2018-12-26T07:17:54.433Z,2.20
2018-12-26T07:20:23.670Z,2.11
2018-12-26T07:22:52.928Z,2.07
2018-12-26T07:25:22.182Z,2.09
2018-12-26T07:27:52.352Z,2.03
2018-12-26T07:30:21.594Z,2.01
2018-12-26T07:32:50.879Z,1.96
2018-12-26T07:35:20.120Z,2.19
2018-12-26T07:37:49.356Z,2.29
2018-12-26T07:40:18.605Z,2.15
2018-12-26T07:42:47.831Z,1.98
2018-12-26T07:45:17.204Z,2.15
2018-12-26T07:47:46.444Z,2.20
2018-12-26T07:50:15.676Z,2.13
2018-12-26T07:52:44.915Z,2.30
2018-12-26T07:55:14.498Z,2.17
2018-12-26T07:57:43.747Z,2.19
2018-12-26T08:00:12.988Z,2.33
2018-12-26T08:02:42.222Z,2.36
2018-12-26T08:05:11.471Z,2.35
2018-12-26T08:07:40.710Z,2.26
2018-12-26T08:10:10.845Z,2.44
2018-12-26T08:12:40.089Z,2.49
2018-12-26T08:15:10.737Z,2.64
2018-12-26T08:17:40.156Z,2.65
2018-12-26T08:20:09.422Z,2.46
2018-12-26T08:22:38.653Z,2.78
2018-12-26T08:25:07.913Z,2.89
2018-12-26T08:27:37.131Z,2.71
2018-12-26T08:30:06.540Z,2.82
2018-12-26T08:32:35.822Z,2.85
2018-12-26T08:35:05.087Z,2.97
2018-12-26T08:37:34.318Z,2.69
2018-12-26T08:40:03.714Z,2.69
2018-12-26T08:42:32.963Z,2.66
2018-12-26T08:45:03.203Z,2.66
2018-12-26T08:47:32.457Z,2.79
2018-12-26T08:50:01.687Z,2.69
2018-12-26T08:52:30.938Z,2.67
2018-12-26T08:55:00.172Z,2.85
2018-12-26T08:57:29.427Z,2.75
2018-12-26T08:59:58.660Z,2.81
2018-12-26T09:02:27.896Z,2.89
2018-12-26T09:04:57.142Z,2.94
2018-12-26T09:07:26.401Z,2.93
2018-12-26T09:09:55.659Z,2.88
2018-12-26T09:12:24.906Z,3.01
2018-12-26T09:14:54.151Z,3.00
2018-12-26T09:17:23.406Z,2.69
2018-12-26T09:19:52.664Z,3.08
2018-12-26T09:22:21.896Z,3.22
2018-12-26T09:24:51.143Z,3.06
2018-12-26T09:27:20.366Z,3.13
2018-12-26T09:29:49.638Z,3.39
2018-12-26T09:32:18.873Z,3.21
2018-12-26T09:34:48.141Z,3.33
2018-12-26T09:37:17.385Z,3.29
2018-12-26T09:39:46.641Z,3.24
2018-12-26T09:42:15.884Z,3.41
2018-12-26T09:44:54.441Z,3.22
2018-12-26T09:47:17.965Z,3.44
2018-12-26T09:49:47.197Z,3.45
2018-12-26T09:52:16.437Z,3.66
2018-12-26T09:54:45.688Z,3.45
2018-12-26T09:57:14.914Z,3.30
2018-12-26T09:59:44.144Z,3.31
2018-12-26T10:02:13.386Z,3.14
2018-12-26T10:04:42.633Z,3.25
2018-12-26T10:07:11.885Z,3.31
2018-12-26T10:09:41.121Z,3.18
2018-12-26T10:12:10.360Z,3.29
2018-12-26T10:14:39.609Z,3.41
2018-12-26T10:17:08.921Z,3.68
2018-12-26T10:19:38.098Z,3.73
2018-12-26T10:22:07.338Z,3.74
2018-12-26T10:24:36.572Z,3.62
2018-12-26T10:27:05.839Z,3.56
2018-12-26T10:29:35.076Z,3.56
2018-12-26T10:32:04.326Z,3.37
2018-12-26T10:34:33.536Z,3.41
2018-12-26T10:37:02.787Z,3.67
2018-12-26T10:39:32.027Z,3.63
2018-12-26T10:42:01.258Z,3.62
2018-12-26T10:44:30.493Z,3.55
2018-12-26T10:46:59.746Z,3.66
2018-12-26T10:49:28.987Z,3.75
2018-12-26T10:51:58.224Z,3.84
2018-12-26T10:54:27.468Z,3.84
2018-12-26T10:56:56.701Z,3.96
2018-12-26T10:59:26.021Z,4.10
2018-12-26T11:01:55.285Z,4.10
2018-12-26T11:04:24.546Z,4.08
2018-12-26T11:06:53.855Z,3.96
2018-12-26T11:09:23.186Z,4.14
2018-12-26T11:11:52.450Z,4.26
2018-12-26T11:14:21.698Z,4.18
2018-12-26T11:16:51.923Z,4.08
2018-12-26T11:19:21.214Z,4.40
2018-12-26T11:21:50.481Z,4.45
2018-12-26T11:24:19.725Z,4.15
2018-12-26T11:26:48.981Z,4.04
2018-12-26T11:29:18.695Z,4.03
2018-12-26T11:31:50.245Z,4.36
2018-12-26T11:34:19.466Z,4.39
2018-12-26T11:36:48.705Z,4.44
2018-12-26T11:39:17.950Z,4.84
2018-12-26T11:41:47.175Z,4.84
2018-12-26T11:44:16.420Z,4.47
2018-12-26T11:46:45.664Z,4.58
2018-12-26T11:49:15.842Z,4.59
2018-12-26T11:51:45.067Z,4.74
2018-12-26T11:54:14.301Z,4.76
2018-12-26T11:56:43.543Z,4.92
2018-12-26T11:59:12.800Z,4.75
2018-12-26T12:01:52.044Z,4.91
2018-12-26T12:04:21.376Z,5.06
2018-12-26T12:06:51.574Z,5.04
2018-12-26T12:09:20.818Z,4.97
2018-12-26T12:11:50.090Z,5.37
2018-12-26T12:14:19.339Z,5.31
2018-12-26T12:16:48.592Z,5.36
2018-12-26T12:19:17.828Z,5.15
2018-12-26T12:21:47.092Z,5.37
2018-12-26T12:24:16.337Z,5.33
2018-12-26T12:26:45.592Z,5.27
2018-12-26T12:29:14.830Z,5.39
2018-12-26T12:31:44.118Z,5.52
2018-12-26T12:34:13.335Z,5.62
2018-12-26T12:36:43.050Z,5.41
2018-12-26T12:39:12.288Z,5.42
2018-12-26T12:41:42.499Z,5.44
2018-12-26T12:44:11.738Z,5.46
2018-12-26T12:46:40.989Z,5.73
2018-12-26T12:49:10.230Z,5.68
2018-12-26T12:51:39.476Z,5.92
2018-12-26T12:54:08.714Z,5.79
2018-12-26T12:56:37.982Z,5.72
2018-12-26T12:59:08.204Z,6.00
2018-12-26T13:01:37.458Z,5.83
2018-12-26T13:04:06.720Z,5.81
2018-12-26T13:06:35.989Z,5.76
2018-12-26T13:09:06.613Z,5.67
2018-12-26T13:11:35.880Z,5.86
2018-12-26T13:14:05.122Z,5.83
2018-12-26T13:16:34.374Z,5.87
2018-12-26T13:19:03.633Z,6.01
2018-12-26T13:21:33.865Z,5.89
2018-12-26T13:24:03.115Z,5.94
2018-12-26T13:26:32.343Z,5.69
2018-12-26T13:29:01.603Z,5.62
2018-12-26T13:31:30.998Z,5.61
2018-12-26T13:34:00.261Z,5.80
2018-12-26T13:36:29.513Z,5.98
2018-12-26T13:38:58.764Z,5.96
2018-12-26T13:41:28.016Z,5.73
2018-12-26T13:43:57.255Z,5.69
2018-12-26T13:46:33.672Z,5.63
2018-12-26T13:48:57.410Z,5.62
2018-12-26T13:51:27.516Z,5.62
2018-12-26T13:53:56.769Z,5.72
2018-12-26T13:56:26.037Z,5.68
2018-12-26T13:58:55.269Z,5.70
2018-12-26T14:01:24.590Z,5.99
2018-12-26T14:03:53.840Z,5.79
2018-12-26T14:06:23.149Z,5.90
2018-12-26T14:08:52.392Z,5.77
2018-12-26T14:11:21.624Z,5.95
2018-12-26T14:13:50.863Z,5.95
2018-12-26T14:16:20.112Z,5.78
2018-12-26T14:18:49.357Z,5.81
2018-12-26T14:21:18.596Z,6.02
2018-12-26T14:23:47.826Z,5.77
2018-12-26T14:26:17.082Z,5.82
2018-12-26T14:28:46.328Z,5.77
2018-12-26T14:31:15.567Z,5.78
2018-12-26T14:33:44.793Z,5.87
2018-12-26T14:36:14.034Z,5.73
2018-12-26T14:38:43.269Z,5.66
2018-12-26T14:41:12.518Z,5.58
2018-12-26T14:43:41.775Z,5.47
2018-12-26T14:46:11.035Z,5.56
2018-12-26T14:48:40.266Z,5.58
2018-12-26T14:51:09.512Z,5.58
2018-12-26T14:53:38.745Z,5.59
2018-12-26T14:56:08.001Z,5.68
2018-12-26T14:58:38.219Z,5.53
2018-12-26T15:01:07.484Z,5.49
2018-12-26T15:03:36.723Z,5.68
2018-12-26T15:06:05.978Z,5.54
2018-12-26T15:08:35.226Z,5.54
2018-12-26T15:11:04.739Z,5.57
2018-12-26T15:13:33.972Z,5.51
2018-12-26T15:16:03.196Z,5.76
2018-12-26T15:18:32.478Z,5.84
2018-12-26T15:21:01.684Z,5.59
2018-12-26T15:23:30.929Z,5.55
2018-12-26T15:26:00.160Z,5.71
2018-12-26T15:28:29.400Z,5.59
2018-12-26T15:30:58.647Z,5.44
2018-12-26T15:33:27.900Z,5.56
2018-12-26T15:35:57.135Z,5.34
2018-12-26T15:38:26.377Z,5.40
2018-12-26T15:40:55.619Z,5.50
2018-12-26T15:43:24.880Z,5.42
2018-12-26T15:45:54.111Z,5.38
2018-12-26T15:48:23.351Z,5.46
2018-12-26T15:50:52.596Z,5.64
2018-12-26T15:53:23.760Z,5.43
2018-12-26T15:55:53.030Z,5.31
2018-12-26T15:58:22.269Z,5.36
2018-12-26T16:00:51.504Z,5.22
2018-12-26T16:03:20.770Z,5.15
2018-12-26T16:05:50.020Z,5.13
2018-12-26T16:08:19.259Z,5.08
2018-12-26T16:10:49.465Z,4.98
2018-12-26T16:13:18.699Z,5.13
2018-12-26T16:15:47.955Z,5.00
2018-12-26T16:18:17.199Z,4.90
2018-12-26T16:20:46.440Z,4.84
2018-12-26T16:23:15.688Z,4.85
2018-12-26T16:25:46.942Z,4.76
2018-12-26T16:28:16.202Z,4.72
2018-12-26T16:30:46.282Z,4.76
2018-12-26T16:33:15.744Z,4.64
2018-12-26T16:35:44.979Z,4.76
2018-12-26T16:38:14.215Z,4.54
2018-12-26T16:40:43.466Z,4.55
2018-12-26T16:43:12.692Z,4.58
2018-12-26T16:45:41.927Z,4.57
2018-12-26T16:48:11.183Z,4.53
2018-12-26T16:50:40.453Z,4.55
2018-12-26T16:53:09.697Z,4.31
2018-12-26T16:55:38.940Z,4.34
2018-12-26T16:58:08.193Z,4.59
2018-12-26T17:00:37.433Z,4.53
2018-12-26T17:03:06.681Z,4.71
2018-12-26T17:05:35.937Z,4.48
2018-12-26T17:08:05.228Z,4.52
2018-12-26T17:10:34.518Z,4.43
2018-12-26T17:13:04.856Z,4.43
2018-12-26T17:15:34.109Z,4.40
2018-12-26T17:18:03.340Z,4.42
2018-12-26T17:20:32.568Z,4.37
2018-12-26T17:23:01.805Z,4.47
2018-12-26T17:25:31.989Z,4.48
2018-12-26T17:28:01.207Z,4.56
2018-12-26T17:30:30.447Z,4.37
2018-12-26T17:33:00.698Z,4.35
2018-12-26T17:35:30.218Z,4.44
2018-12-26T17:37:59.443Z,4.38
2018-12-26T17:40:28.707Z,4.41
2018-12-26T17:42:58.903Z,4.26
2018-12-26T17:45:28.151Z,4.19
2018-12-26T17:47:57.407Z,4.08
2018-12-26T17:50:46.528Z,4.26
2018-12-26T17:53:32.136Z,4.25
2018-12-26T17:56:13.254Z,4.41
2018-12-26T17:58:51.609Z,4.39
2018-12-26T18:01:29.725Z,4.27
2018-12-26T18:03:58.968Z,4.18
2018-12-26T18:06:28.198Z,4.10
2018-12-26T18:08:57.454Z,4.08
2018-12-26T18:11:26.716Z,4.15
2018-12-26T18:13:55.967Z,4.09
2018-12-26T18:16:25.201Z,4.13
2018-12-26T18:18:54.469Z,3.89
2018-12-26T18:21:23.691Z,3.99
2018-12-26T18:23:52.940Z,3.76
2018-12-26T18:26:22.172Z,4.00
2018-12-26T18:28:51.408Z,3.88
2018-12-26T18:31:21.917Z,3.77
2018-12-26T18:33:51.568Z,3.97
2018-12-26T18:36:20.805Z,4.02
2018-12-26T18:38:55.804Z,3.91
2018-12-26T18:41:25.043Z,3.76
2018-12-26T18:43:54.286Z,3.63
2018-12-26T18:46:23.537Z,3.84
2018-12-26T18:48:52.765Z,3.92
2018-12-26T18:51:22.006Z,4.09
2018-12-26T18:53:51.244Z,3.97
2018-12-26T18:56:23.575Z,3.72
2018-12-26T18:58:52.831Z,3.70
2018-12-26T19:01:30.437Z,3.76
2018-12-26T19:03:53.023Z,3.71
2018-12-26T19:06:22.247Z,3.69
2018-12-26T19:08:51.499Z,3.48
2018-12-26T19:11:20.740Z,3.70
2018-12-26T19:13:50.001Z,3.58
2018-12-26T19:16:25.252Z,3.61
2018-12-26T19:18:54.502Z,3.55
2018-12-26T19:21:23.738Z,3.61
2018-12-26T19:23:52.995Z,3.61
2018-12-26T19:26:22.258Z,3.52
2018-12-26T19:28:58.405Z,3.71
2018-12-26T19:31:27.725Z,3.58
2018-12-26T19:33:57.907Z,3.41
2018-12-26T19:36:27.173Z,3.58
2018-12-26T19:38:56.413Z,3.58
2018-12-26T19:41:25.663Z,3.49
2018-12-26T19:43:54.995Z,3.42
2018-12-26T19:46:24.238Z,3.31
2018-12-26T19:48:53.472Z,3.36
2018-12-26T19:51:22.713Z,3.40
2018-12-26T19:53:51.942Z,3.52
2018-12-26T19:56:21.240Z,3.53
2018-12-26T19:58:50.491Z,3.41
2018-12-26T20:01:19.728Z,3.43
2018-12-26T20:03:48.960Z,3.40
2018-12-26T20:06:18.183Z,3.27
2018-12-26T20:08:47.445Z,3.24
2018-12-26T20:11:16.683Z,3.54
2018-12-26T20:13:45.944Z,3.44
2018-12-26T20:16:15.167Z,3.32
2018-12-26T20:18:44.417Z,3.47
2018-12-26T20:21:13.652Z,3.18
2018-12-26T20:23:42.918Z,3.17
2018-12-26T20:26:13.135Z,3.14
2018-12-26T20:28:42.392Z,3.12
2018-12-26T20:31:11.632Z,2.99
2018-12-26T20:33:40.885Z,3.16
2018-12-26T20:36:10.149Z,3.10
2018-12-26T20:38:39.381Z,3.05
2018-12-26T20:41:08.632Z,3.07
2018-12-26T20:43:37.905Z,3.16
2018-12-26T20:46:07.167Z,3.34
2018-12-26T20:48:36.405Z,3.24
2018-12-26T20:51:05.655Z,3.30
2018-12-26T20:53:34.875Z,3.13
2018-12-26T20:56:04.128Z,3.18
2018-12-26T20:58:33.377Z,3.21
2018-12-26T21:01:02.618Z,3.00
2018-12-26T21:03:31.854Z,3.06
2018-12-26T21:06:01.094Z,3.19
2018-12-26T21:08:30.354Z,2.97
2018-12-26T21:10:59.602Z,2.90
2018-12-26T21:13:28.853Z,2.94
2018-12-26T21:15:58.099Z,2.92
2018-12-26T21:18:27.365Z,2.96
2018-12-26T21:20:56.618Z,2.82
2018-12-26T21:23:25.868Z,2.96
2018-12-26T21:25:55.108Z,2.88
2018-12-26T21:28:24.356Z,3.02
2018-12-26T21:30:53.618Z,2.98
2018-12-26T21:33:22.851Z,3.04
2018-12-26T21:35:52.095Z,3.15
2018-12-26T21:38:21.344Z,3.04
2018-12-26T21:40:50.577Z,3.25
2018-12-26T21:43:19.822Z,3.16
2018-12-26T21:45:49.075Z,3.02
2018-12-26T21:48:18.307Z,2.96
2018-12-26T21:50:47.533Z,2.90
2018-12-26T21:53:16.785Z,3.05
2018-12-26T21:55:46.020Z,3.19
2018-12-26T21:58:15.256Z,2.91
2018-12-26T22:00:44.479Z,2.99
2018-12-26T22:03:13.727Z,3.15
2018-12-26T22:05:42.972Z,3.25
2018-12-26T22:08:13.207Z,3.14
2018-12-26T22:10:42.437Z,3.20
2018-12-26T22:13:11.683Z,3.29
2018-12-26T22:15:40.925Z,3.33
2018-12-26T22:18:10.154Z,3.54
2018-12-26T22:20:39.405Z,3.58
2018-12-26T22:23:08.696Z,3.95
2018-12-26T22:25:37.887Z,3.88
2018-12-26T22:28:07.153Z,3.86
2018-12-26T22:30:36.416Z,3.84
2018-12-26T22:33:05.653Z,3.95
2018-12-26T22:35:34.937Z,3.90
2018-12-26T22:38:05.133Z,3.92
2018-12-26T22:40:34.393Z,3.98
2018-12-26T22:43:03.626Z,3.73
2018-12-26T22:45:32.876Z,3.91
2018-12-26T22:48:02.137Z,3.81
2018-12-26T22:50:31.401Z,3.75
2018-12-26T22:53:00.646Z,3.69
2018-12-26T22:55:29.903Z,3.59
2018-12-26T22:57:59.169Z,3.55
2018-12-26T23:00:30.301Z,3.60
2018-12-26T23:02:59.551Z,3.66
2018-12-26T23:05:28.790Z,3.69
2018-12-26T23:07:58.102Z,3.65
2018-12-26T23:10:27.331Z,3.60
2018-12-26T23:12:56.582Z,3.69
2018-12-26T23:15:25.816Z,3.51
2018-12-26T23:17:55.146Z,3.51
2018-12-26T23:20:24.404Z,3.67
2018-12-26T23:22:53.639Z,3.65
2018-12-26T23:25:22.889Z,3.63
2018-12-26T23:27:52.129Z,3.72
2018-12-26T23:30:21.389Z,3.68
2018-12-26T23:32:50.656Z,3.58
2018-12-26T23:35:19.899Z,3.75
2018-12-26T23:37:49.150Z,3.66
2018-12-26T23:40:18.396Z,3.48
2018-12-26T23:42:47.660Z,3.43
2018-12-26T23:45:16.906Z,3.32
2018-12-26T23:47:46.155Z,3.44
2018-12-26T23:50:15.397Z,3.29
2018-12-26T23:52:44.641Z,3.30
2018-12-26T23:55:13.880Z,3.21
2018-12-26T23:57:43.115Z,3.27
